Main page
METAR-TAF:

METAR-TAF

Airports :

Ho Chi Minh City, Vietnam

Tan Son Nhat International Airport

latitude: 10-49N, longitude: 106-40E, elevation: 19 m

Current weather observation

The report was made 24 minutes ago, at 13:30 UTC
Wind 11 kt from the Southeast, varying between East and South/Southeast
Temperature 29°C
Humidity 70%
Pressure 1012 hPa
Visibility 10 km or more
Few clouds at a height of 1700 ft

METAR: VVTS 281330Z 13011KT 100V160 9999 FEW017 29/23 Q1012 NOSIG

Time: 20:54 (13:54 UTC)

Forecast

The report was made 2 hours and 54 minutes ago, at 11:00 UTC
Forecast valid from 28 at 12 UTC to 29 at 18 UTC
Wind 8 kt from the Southeast
Visibility 10 km or more
Scattered clouds at a height of 1700 ft
Scattered clouds at a height of 4000 ft

TAF: VVTS 281100Z 2812/2918 14008KT 9999 SCT017 SCT040

Weather observations and forecasts of more than 4000 airports (METAR and TAF reports).

The available stations are represented by yellow and red dots on the map.

Hover mouse over dot to see the name of the station.

Then click to see weather observations and forecasts.

To change the map : click on the green buttons with a black cross to zoom in, on the green button with a dash to zoom out, or on the green arrows for adjacent maps.


METAR-TAF: